createdAt,value
2022-11-02T00:00:41.994Z,101207.89
2022-11-02T00:03:12.563Z,101199.35
2022-11-02T00:05:42.948Z,101192.89
2022-11-02T00:08:13.616Z,101193.89
2022-11-02T00:10:43.874Z,101191.19
2022-11-02T00:13:14.358Z,101192.35
2022-11-02T00:15:44.818Z,101183.86
2022-11-02T00:18:15.300Z,101172.27
2022-11-02T00:20:45.762Z,101164.54
2022-11-02T00:23:16.292Z,101170.22
2022-11-02T00:25:46.705Z,101167.39
2022-11-02T00:28:17.182Z,101167.89
2022-11-02T00:30:47.641Z,101175.30
2022-11-02T00:33:18.140Z,101176.04
2022-11-02T00:35:48.578Z,101181.33
2022-11-02T00:38:19.111Z,101187.16
2022-11-02T00:40:49.516Z,101182.38
2022-11-02T00:43:19.996Z,101182.40
2022-11-02T00:45:50.452Z,101172.96
2022-11-02T00:48:20.933Z,101160.38
2022-11-02T00:50:51.385Z,101163.45
2022-11-02T00:53:21.897Z,101156.90
2022-11-02T00:55:52.095Z,101155.41
2022-11-02T00:58:22.521Z,101154.37
2022-11-02T01:00:53.043Z,101143.14
2022-11-02T01:03:23.462Z,101146.03
2022-11-02T01:05:53.912Z,101145.83
2022-11-02T01:08:24.407Z,101145.84
2022-11-02T01:10:54.849Z,101140.20
2022-11-02T01:13:25.350Z,101154.21
2022-11-02T01:15:55.901Z,101141.25
2022-11-02T01:18:26.285Z,101130.39
2022-11-02T01:20:56.392Z,101138.49
2022-11-02T01:23:26.682Z,101129.99
2022-11-02T01:25:57.056Z,101130.91
2022-11-02T01:28:27.541Z,101136.88
2022-11-02T01:30:57.996Z,101125.40
2022-11-02T01:33:28.481Z,101109.78
2022-11-02T01:35:58.948Z,101128.42
2022-11-02T01:38:29.463Z,101126.49
2022-11-02T01:40:59.874Z,101124.09
2022-11-02T01:43:30.402Z,101124.09
2022-11-02T01:46:00.818Z,101122.56
2022-11-02T01:48:31.305Z,101118.92
2022-11-02T01:51:01.766Z,101119.50
2022-11-02T01:53:32.343Z,101127.45
2022-11-02T01:56:02.712Z,101119.37
2022-11-02T01:58:33.264Z,101128.67
2022-11-02T02:01:03.659Z,101134.32
2022-11-02T02:03:34.151Z,101136.11
2022-11-02T02:06:04.605Z,101142.76
2022-11-02T02:08:35.189Z,101139.23
2022-11-02T02:11:05.546Z,101140.77
2022-11-02T02:13:36.023Z,101146.90
2022-11-02T02:16:06.490Z,101149.09
2022-11-02T02:18:36.975Z,101155.58
2022-11-02T02:21:07.426Z,101146.44
2022-11-02T02:23:37.923Z,101143.39
2022-11-02T02:26:08.377Z,101153.09
2022-11-02T02:28:38.863Z,101148.04
2022-11-02T02:31:09.321Z,101145.10
2022-11-02T02:33:39.842Z,101137.71
2022-11-02T02:36:10.265Z,101138.80
2022-11-02T02:38:40.770Z,101135.78
2022-11-02T02:41:11.220Z,101130.91
2022-11-02T02:43:41.716Z,101125.81
2022-11-02T02:46:12.182Z,101126.06
2022-11-02T02:48:42.681Z,101124.29
2022-11-02T02:51:13.164Z,101131.09
2022-11-02T02:53:43.643Z,101131.40
2022-11-02T02:56:14.113Z,101132.27
2022-11-02T02:58:44.608Z,101143.23
2022-11-02T03:01:15.217Z,101191.08
2022-11-02T03:03:45.598Z,101163.56
2022-11-02T03:06:16.136Z,101221.21
2022-11-02T03:08:46.589Z,101174.62
2022-11-02T03:11:17.067Z,101177.29
2022-11-02T03:13:47.620Z,101158.77
2022-11-02T03:16:18.183Z,101156.52
2022-11-02T03:18:48.606Z,101161.53
2022-11-02T03:21:19.088Z,101159.47
2022-11-02T03:23:49.631Z,101164.16
2022-11-02T03:26:20.113Z,101158.05
2022-11-02T03:28:50.657Z,101161.29
2022-11-02T03:31:21.148Z,101159.11
2022-11-02T03:33:51.673Z,101161.96
2022-11-02T03:36:22.182Z,101166.25
2022-11-02T03:38:52.708Z,101170.29
2022-11-02T03:41:23.199Z,101173.24
2022-11-02T03:43:53.716Z,101173.86
2022-11-02T03:46:24.220Z,101181.31
2022-11-02T03:48:54.748Z,101183.85
2022-11-02T03:51:25.244Z,101174.94
2022-11-02T03:53:55.908Z,101181.94
2022-11-02T03:56:26.273Z,101180.43
2022-11-02T03:58:56.839Z,101180.31
2022-11-02T04:01:27.456Z,101174.21
2022-11-02T04:03:57.850Z,101171.04
2022-11-02T04:06:28.346Z,101167.06
2022-11-02T04:08:58.909Z,101164.44
2022-11-02T04:11:29.409Z,101166.74
2022-11-02T04:13:59.960Z,101174.85
2022-11-02T04:16:30.458Z,101173.08
2022-11-02T04:19:00.995Z,101182.25
2022-11-02T04:21:31.503Z,101178.22
2022-11-02T04:24:02.155Z,101183.93
2022-11-02T04:26:32.556Z,101186.10
2022-11-02T04:29:03.099Z,101182.21
2022-11-02T04:31:33.722Z,101182.68
2022-11-02T04:34:04.169Z,101187.97
2022-11-02T04:36:34.687Z,101194.04
2022-11-02T04:39:05.319Z,101190.53
2022-11-02T04:41:35.782Z,101192.75
2022-11-02T04:44:06.383Z,101194.44
2022-11-02T04:46:36.882Z,101193.69
2022-11-02T04:49:07.437Z,101193.47
2022-11-02T04:51:37.971Z,101201.20
2022-11-02T04:54:08.540Z,101199.16
2022-11-02T04:56:39.070Z,101206.52
2022-11-02T04:59:09.629Z,101206.73
2022-11-02T05:01:40.306Z,101206.24
2022-11-02T05:04:10.835Z,101210.03
2022-11-02T05:06:41.233Z,101212.30
2022-11-02T05:09:11.808Z,101212.25
2022-11-02T05:11:42.396Z,101209.96
2022-11-02T05:14:12.852Z,101215.14
2022-11-02T05:16:43.376Z,101218.89
2022-11-02T05:19:13.931Z,101224.81
2022-11-02T05:21:44.468Z,101222.54
2022-11-02T05:24:15.064Z,101227.39
2022-11-02T05:26:49.727Z,101224.89
2022-11-02T05:29:16.122Z,101228.66
2022-11-02T05:31:46.658Z,101236.47
2022-11-02T05:34:17.259Z,101231.38
2022-11-02T05:36:47.741Z,101234.45
2022-11-02T05:39:18.329Z,101238.90
2022-11-02T05:41:48.834Z,101244.31
2022-11-02T05:44:19.388Z,101241.88
2022-11-02T05:46:49.916Z,101249.48
2022-11-02T05:49:20.462Z,101252.02
2022-11-02T05:51:50.984Z,101251.16
2022-11-02T05:54:21.531Z,101251.19
2022-11-02T05:56:52.036Z,101261.85
2022-11-02T05:59:22.573Z,101261.93
2022-11-02T06:01:53.170Z,101256.46
2022-11-02T06:04:23.642Z,101255.68
2022-11-02T06:06:54.130Z,101259.14
2022-11-02T06:09:24.702Z,101259.51
2022-11-02T06:11:55.179Z,101264.33
2022-11-02T06:14:25.693Z,101262.24
2022-11-02T06:16:56.205Z,101270.06
2022-11-02T06:19:26.732Z,101265.70
2022-11-02T06:21:57.343Z,101281.33
2022-11-02T06:24:27.888Z,101281.28
2022-11-02T06:26:58.381Z,101277.28
2022-11-02T06:29:28.795Z,101279.10
2022-11-02T06:31:59.300Z,101286.38
2022-11-02T06:34:29.872Z,101286.23
2022-11-02T06:37:00.036Z,101293.85
2022-11-02T06:39:30.640Z,101291.01
2022-11-02T06:42:00.707Z,101296.33
2022-11-02T06:44:31.222Z,101301.23
2022-11-02T06:47:01.718Z,101306.92
2022-11-02T06:49:32.231Z,101315.40
2022-11-02T06:52:02.728Z,101318.88
2022-11-02T06:54:33.285Z,101321.02
2022-11-02T06:57:03.745Z,101325.07
2022-11-02T06:59:34.275Z,101332.32
2022-11-02T07:02:04.868Z,101333.42
2022-11-02T07:04:35.290Z,101342.32
2022-11-02T07:07:05.767Z,101343.70
2022-11-02T07:09:36.375Z,101352.75
2022-11-02T07:12:06.774Z,101361.34
2022-11-02T07:14:37.313Z,101367.03
2022-11-02T07:17:07.436Z,101366.06
2022-11-02T07:19:38.023Z,101381.04
2022-11-02T07:22:08.507Z,101378.46
2022-11-02T07:24:39.047Z,101383.90
2022-11-02T07:27:09.520Z,101380.34
2022-11-02T07:29:40.036Z,101377.41
2022-11-02T07:32:10.538Z,101387.12
2022-11-02T07:34:41.145Z,101385.63
2022-11-02T07:37:11.533Z,101397.51
2022-11-02T07:39:42.062Z,101397.85
2022-11-02T07:42:12.255Z,101398.61
2022-11-02T07:44:42.775Z,101407.73
2022-11-02T07:47:12.910Z,101414.81
2022-11-02T07:49:43.524Z,101425.41
2022-11-02T07:52:13.899Z,101429.07
2022-11-02T07:54:44.795Z,101433.58
2022-11-02T07:57:14.886Z,101442.81
2022-11-02T07:59:45.617Z,101446.62
2022-11-02T08:02:15.890Z,101450.49
2022-11-02T08:04:46.162Z,101455.27
2022-11-02T08:07:16.600Z,101458.30
2022-11-02T08:09:47.116Z,101467.41
2022-11-02T08:12:17.595Z,101462.38
2022-11-02T08:14:48.114Z,101460.90
2022-11-02T08:17:18.607Z,101469.45
2022-11-02T08:19:49.101Z,101481.08
2022-11-02T08:22:19.591Z,101480.21
2022-11-02T08:24:50.116Z,101486.87
2022-11-02T08:27:20.603Z,101484.60
2022-11-02T08:29:51.130Z,101483.58
2022-11-02T08:32:21.630Z,101494.66
2022-11-02T08:34:52.206Z,101496.13
2022-11-02T08:37:22.744Z,101496.09
2022-11-02T08:39:53.170Z,101504.26
2022-11-02T08:42:23.654Z,101508.64
2022-11-02T08:44:54.138Z,101509.40
2022-11-02T08:47:24.623Z,101518.04
2022-11-02T08:49:55.175Z,101530.95
2022-11-02T08:52:25.627Z,101540.56
2022-11-02T08:54:56.114Z,101540.06
2022-11-02T08:57:26.603Z,101537.74
2022-11-02T08:59:57.101Z,101543.51
2022-11-02T09:02:27.712Z,101542.90
2022-11-02T09:04:58.153Z,101554.54
2022-11-02T09:07:28.547Z,101558.03
2022-11-02T09:09:59.132Z,101562.33
2022-11-02T09:12:29.660Z,101566.87
2022-11-02T09:15:00.166Z,101568.96
2022-11-02T09:17:30.596Z,101565.42
2022-11-02T09:20:01.079Z,101571.95
2022-11-02T09:22:31.552Z,101567.68
2022-11-02T09:25:02.063Z,101579.72
2022-11-02T09:27:32.547Z,101579.92
2022-11-02T09:30:03.050Z,101590.16
2022-11-02T09:32:33.525Z,101595.05
2022-11-02T09:35:04.040Z,101593.78
2022-11-02T09:37:34.621Z,101599.13
2022-11-02T09:40:05.024Z,101603.82
2022-11-02T09:42:35.506Z,101611.02
2022-11-02T09:45:06.013Z,101610.43
2022-11-02T09:48:15.297Z,101609.06
2022-11-02T09:50:07.014Z,101615.72
2022-11-02T09:52:37.503Z,101612.33
2022-11-02T09:55:08.015Z,101619.41
2022-11-02T09:57:38.505Z,101618.84
2022-11-02T10:00:09.079Z,101629.82
2022-11-02T10:02:39.521Z,101634.34
2022-11-02T10:05:09.980Z,101638.47
2022-11-02T10:07:40.458Z,101640.01
2022-11-02T10:10:10.951Z,101634.71
2022-11-02T10:12:41.436Z,101645.26
2022-11-02T10:15:11.909Z,101641.97
2022-11-02T10:17:42.380Z,101648.58
2022-11-02T10:20:13.006Z,101654.58
2022-11-02T10:22:43.276Z,101663.01
2022-11-02T10:25:13.777Z,101669.42
2022-11-02T10:27:44.298Z,101668.74
2022-11-02T10:30:14.750Z,101663.65
2022-11-02T10:32:45.379Z,101669.77
2022-11-02T10:35:33.929Z,101684.13
2022-11-02T10:37:46.110Z,101698.95
2022-11-02T10:40:16.605Z,101708.14
2022-11-02T10:42:46.789Z,101707.13
2022-11-02T10:45:17.258Z,101715.42
2022-11-02T10:47:47.358Z,101710.90
2022-11-02T10:50:17.973Z,101712.99
2022-11-02T10:52:48.306Z,101719.76
2022-11-02T10:55:18.526Z,101717.61
2022-11-02T10:57:49.000Z,101723.19
2022-11-02T11:00:19.535Z,101719.14
2022-11-02T11:02:49.968Z,101727.60
2022-11-02T11:05:20.470Z,101718.36
2022-11-02T11:07:50.948Z,101722.83
2022-11-02T11:10:21.552Z,101730.69
2022-11-02T11:12:51.939Z,101735.77
2022-11-02T11:15:48.043Z,101728.02
2022-11-02T11:20:23.423Z,101731.81
2022-11-02T11:22:53.902Z,101736.38
2022-11-02T11:25:27.044Z,101723.94
2022-11-02T11:27:54.889Z,101729.05
2022-11-02T11:30:54.125Z,101730.69
2022-11-02T11:32:55.860Z,101734.36
2022-11-02T11:35:26.434Z,101728.35
2022-11-02T11:37:56.849Z,101731.38
2022-11-02T11:40:27.401Z,101738.12
2022-11-02T11:43:01.461Z,101735.31
2022-11-02T11:45:28.324Z,101734.71
2022-11-02T11:47:58.533Z,101727.59
2022-11-02T11:50:29.589Z,101729.32
2022-11-02T11:52:59.593Z,101728.56
2022-11-02T11:55:30.031Z,101723.52
2022-11-02T11:58:00.515Z,101741.45
2022-11-02T12:00:31.214Z,101732.46
2022-11-02T12:03:01.715Z,101731.47
2022-11-02T12:05:31.964Z,101737.77
2022-11-02T12:08:02.471Z,101745.81
2022-11-02T12:10:32.924Z,101742.80
2022-11-02T12:13:03.659Z,101742.27
2022-11-02T12:15:33.875Z,101735.36
2022-11-02T12:18:04.659Z,101734.04
2022-11-02T12:20:34.951Z,101737.81
2022-11-02T12:23:05.698Z,101740.01
2022-11-02T12:25:36.028Z,101750.42
2022-11-02T12:28:06.619Z,101751.66
2022-11-02T12:30:37.129Z,101746.64
2022-11-02T12:33:08.162Z,101752.19
2022-11-02T12:35:38.190Z,101753.12
2022-11-02T12:38:08.656Z,101752.11
2022-11-02T12:40:39.181Z,101748.44
2022-11-02T12:43:09.648Z,101751.66
2022-11-02T12:45:40.206Z,101746.82
2022-11-02T12:48:10.625Z,101746.37
2022-11-02T12:50:41.296Z,101749.17
2022-11-02T12:53:11.785Z,101746.95
2022-11-02T12:55:42.314Z,101751.40
2022-11-02T12:58:12.811Z,101739.81
2022-11-02T13:00:43.401Z,101749.88
2022-11-02T13:03:13.836Z,101751.56
2022-11-02T13:05:44.319Z,101752.32
2022-11-02T13:08:14.807Z,101749.01
2022-11-02T13:10:48.228Z,101744.79
2022-11-02T13:13:15.771Z,101752.16
2022-11-02T13:15:46.291Z,101746.19
2022-11-02T13:18:16.717Z,101749.18
2022-11-02T13:20:47.203Z,101749.37
2022-11-02T13:23:17.689Z,101742.67
2022-11-02T13:25:48.152Z,101733.92
2022-11-02T13:28:18.638Z,101729.01
2022-11-02T13:30:49.254Z,101728.60
2022-11-02T13:33:19.661Z,101725.11
2022-11-02T13:35:50.130Z,101732.26
2022-11-02T13:38:20.603Z,101729.56
2022-11-02T13:40:51.119Z,101734.94
2022-11-02T13:43:21.579Z,101736.35
2022-11-02T13:45:52.077Z,101741.39
2022-11-02T13:48:22.189Z,101744.90
2022-11-02T13:50:52.684Z,101743.96
2022-11-02T13:53:23.207Z,101744.05
2022-11-02T13:55:53.642Z,101737.55
2022-11-02T13:58:24.128Z,101735.23
2022-11-02T14:00:54.711Z,101726.53
2022-11-02T14:03:25.101Z,101731.59
2022-11-02T14:05:55.591Z,101733.65
2022-11-02T14:08:26.166Z,101737.73
2022-11-02T14:11:00.893Z,101734.05
2022-11-02T14:13:26.726Z,101733.02
2022-11-02T14:15:57.252Z,101730.19
2022-11-02T14:18:27.692Z,101727.60
2022-11-02T14:20:58.186Z,101730.34
2022-11-02T14:23:28.650Z,101731.38
2022-11-02T14:25:59.143Z,101730.76
2022-11-02T14:28:29.614Z,101731.70
2022-11-02T14:31:00.109Z,101729.61
2022-11-02T14:33:30.639Z,101736.61
2022-11-02T14:36:01.170Z,101740.83
2022-11-02T14:38:31.556Z,101740.31
2022-11-02T14:41:02.061Z,101742.95
2022-11-02T14:43:32.526Z,101740.64
2022-11-02T14:46:06.551Z,101739.65
2022-11-02T14:48:33.213Z,101740.94
2022-11-02T14:51:03.701Z,101730.78
2022-11-02T14:53:34.178Z,101734.18
2022-11-02T14:56:04.671Z,101734.01
2022-11-02T14:58:34.773Z,101733.42
2022-11-02T15:01:05.334Z,101736.38
2022-11-02T15:03:35.714Z,101736.58
2022-11-02T15:06:06.212Z,101731.79
2022-11-02T15:08:36.698Z,101725.63
2022-11-02T15:11:07.187Z,101725.48
2022-11-02T15:13:37.673Z,101729.02
2022-11-02T15:16:08.174Z,101728.78
2022-11-02T15:18:38.647Z,101729.27
2022-11-02T15:21:09.141Z,101726.66
2022-11-02T15:23:39.677Z,101725.82
2022-11-02T15:26:10.129Z,101726.15
2022-11-02T15:28:40.600Z,101724.77
2022-11-02T15:31:11.104Z,101723.25
2022-11-02T15:33:41.569Z,101726.17
2022-11-02T15:36:12.134Z,101725.69
2022-11-02T15:38:42.534Z,101725.13
2022-11-02T15:41:13.046Z,101723.16
2022-11-02T15:43:43.626Z,101722.05
2022-11-02T15:46:14.000Z,101722.64
2022-11-02T15:48:44.488Z,101723.12
2022-11-02T15:51:14.976Z,101723.46
2022-11-02T15:53:45.456Z,101720.47
2022-11-02T15:56:15.945Z,101716.84
2022-11-02T15:58:46.405Z,101719.74
2022-11-02T16:01:17.106Z,101715.77
2022-11-02T16:03:47.378Z,101712.72
2022-11-02T16:06:17.891Z,101715.52
2022-11-02T16:08:48.371Z,101716.78
2022-11-02T16:11:18.885Z,101717.93
2022-11-02T16:16:19.880Z,101714.22
2022-11-02T16:18:50.360Z,101714.15
2022-11-02T16:21:20.854Z,101714.64
2022-11-02T16:23:51.330Z,101714.47
2022-11-02T16:26:21.836Z,101711.98
2022-11-02T16:28:52.303Z,101714.53
2022-11-02T16:31:22.808Z,101715.83
2022-11-02T16:33:53.294Z,101715.27
2022-11-02T16:36:23.795Z,101716.37
2022-11-02T16:38:54.278Z,101716.93
2022-11-02T16:41:24.797Z,101715.50
2022-11-02T16:43:55.277Z,101713.62
2022-11-02T16:46:25.787Z,101714.44
2022-11-02T16:48:56.282Z,101712.95
2022-11-02T16:51:26.885Z,101709.31
2022-11-02T16:53:57.315Z,101710.94
2022-11-02T16:56:27.874Z,101708.27
2022-11-02T16:58:58.360Z,101712.60
2022-11-02T17:01:29.071Z,101710.54
2022-11-02T17:03:59.434Z,101712.23
2022-11-02T17:06:29.769Z,101711.27
2022-11-02T17:09:00.178Z,101707.60
2022-11-02T17:11:30.722Z,101708.27
2022-11-02T17:14:01.220Z,101710.59
2022-11-02T17:16:31.749Z,101710.44
2022-11-02T17:19:02.255Z,101707.70
2022-11-02T17:21:32.778Z,101705.26
2022-11-02T17:24:03.287Z,101709.85
2022-11-02T17:26:33.829Z,101710.73
2022-11-02T17:29:04.340Z,101707.61
2022-11-02T17:31:34.957Z,101703.67
2022-11-02T17:34:05.371Z,101703.66
2022-11-02T17:36:35.891Z,101700.90
2022-11-02T17:39:06.398Z,101696.73
2022-11-02T17:41:36.931Z,101698.22
2022-11-02T17:44:07.473Z,101694.14
2022-11-02T17:46:40.430Z,101693.94
2022-11-02T17:49:08.475Z,101685.34
2022-11-02T17:51:39.077Z,101686.20
2022-11-02T17:54:09.230Z,101685.22
2022-11-02T17:56:39.406Z,101678.15
2022-11-02T17:59:09.928Z,101677.85
2022-11-02T18:01:40.540Z,101679.33
2022-11-02T18:04:10.927Z,101674.99
2022-11-02T18:06:41.448Z,101677.20
2022-11-02T18:09:11.948Z,101681.57
2022-11-02T18:11:42.558Z,101681.29
2022-11-02T18:14:13.057Z,101679.76
2022-11-02T18:16:43.489Z,101677.31
2022-11-02T18:19:14.003Z,101676.90
2022-11-02T18:21:44.620Z,101675.43
2022-11-02T18:24:15.030Z,101669.56
2022-11-02T18:26:46.902Z,101663.37
2022-11-02T18:29:16.106Z,101663.47
2022-11-02T18:31:46.624Z,101658.48
2022-11-02T18:34:17.100Z,101663.78
2022-11-02T18:36:47.616Z,101668.21
2022-11-02T18:39:18.117Z,101664.94
2022-11-02T18:41:48.638Z,101663.47
2022-11-02T18:44:19.117Z,101660.96
2022-11-02T18:46:49.632Z,101659.30
2022-11-02T18:49:20.130Z,101659.95
2022-11-02T18:51:50.650Z,101656.29
2022-11-02T18:54:21.195Z,101652.28
2022-11-02T18:56:51.675Z,101650.75
2022-11-02T18:59:21.942Z,101646.25
2022-11-02T19:01:52.695Z,101649.32
2022-11-02T19:04:22.915Z,101645.53
2022-11-02T19:06:53.457Z,101637.11
2022-11-02T19:09:23.966Z,101630.58
2022-11-02T19:11:54.516Z,101623.44
2022-11-02T19:14:25.123Z,101619.55
2022-11-02T19:16:55.293Z,101613.22
2022-11-02T19:19:25.811Z,101608.58
2022-11-02T19:21:56.340Z,101605.05
2022-11-02T19:24:26.520Z,101605.90
2022-11-02T19:26:57.043Z,101602.09
2022-11-02T19:29:27.578Z,101605.33
2022-11-02T19:31:58.085Z,101605.05
2022-11-02T19:34:28.632Z,101598.01
2022-11-02T19:36:59.267Z,101589.17
2022-11-02T19:39:29.694Z,101587.88
2022-11-02T19:42:00.232Z,101586.04
2022-11-02T19:44:30.865Z,101581.49
2022-11-02T19:47:01.293Z,101576.23
2022-11-02T19:49:31.821Z,101576.04
2022-11-02T19:52:03.601Z,101569.72
2022-11-02T19:54:33.022Z,101565.33
2022-11-02T19:57:03.470Z,101569.38
2022-11-02T19:59:33.989Z,101557.50
2022-11-02T20:02:04.814Z,101554.06
2022-11-02T20:04:41.043Z,101552.49
2022-11-02T20:07:05.622Z,101543.35
2022-11-02T20:09:36.126Z,101545.21
2022-11-02T20:12:06.690Z,101544.20
2022-11-02T20:14:37.196Z,101545.83
2022-11-02T20:17:25.316Z,101547.44
2022-11-02T20:19:38.288Z,101545.97
2022-11-02T20:22:08.865Z,101544.62
2022-11-02T20:24:39.382Z,101536.27
2022-11-02T20:27:09.949Z,101541.14
2022-11-02T20:29:40.530Z,101541.83
2022-11-02T20:32:11.040Z,101548.53
2022-11-02T20:34:41.586Z,101543.35
2022-11-02T20:37:12.175Z,101544.39
2022-11-02T20:39:42.826Z,101539.52
2022-11-02T20:42:13.234Z,101534.42
2022-11-02T20:44:43.756Z,101528.36
2022-11-02T20:47:14.346Z,101522.86
2022-11-02T20:49:50.542Z,101526.69
2022-11-02T20:52:15.400Z,101525.30
2022-11-02T20:54:45.945Z,101524.09
2022-11-02T20:57:16.632Z,101517.10
2022-11-02T20:59:46.783Z,101512.85
2022-11-02T21:02:17.508Z,101510.54
2022-11-02T21:04:47.849Z,101509.07
2022-11-02T21:07:18.162Z,101506.50
2022-11-02T21:09:48.702Z,101499.63
2022-11-02T21:12:19.277Z,101500.44
2022-11-02T21:14:49.815Z,101497.57
2022-11-02T21:17:20.357Z,101498.09
2022-11-02T21:19:57.991Z,101502.13
2022-11-02T21:22:21.607Z,101498.82
2022-11-02T21:24:52.016Z,101495.78
2022-11-02T21:27:22.564Z,101493.92
2022-11-02T21:29:52.794Z,101481.58
2022-11-02T21:32:23.290Z,101480.01
2022-11-02T21:34:53.828Z,101477.57
2022-11-02T21:37:24.388Z,101474.80
2022-11-02T21:39:54.926Z,101479.41
2022-11-02T21:42:25.491Z,101476.56
2022-11-02T21:44:56.028Z,101476.56
2022-11-02T21:47:26.883Z,101472.98
2022-11-02T21:49:57.123Z,101467.82
2022-11-02T21:52:27.406Z,101465.65
2022-11-02T21:54:57.952Z,101464.32
2022-11-02T21:57:28.511Z,101462.92
2022-11-02T21:59:59.043Z,101466.44
2022-11-02T22:02:29.671Z,101459.71
2022-11-02T22:05:00.146Z,101464.09
2022-11-02T22:07:30.732Z,101461.78
2022-11-02T22:10:01.207Z,101455.75
2022-11-02T22:12:31.758Z,101453.17
2022-11-02T22:15:02.273Z,101450.68
2022-11-02T22:17:49.144Z,101444.59
2022-11-02T22:20:03.341Z,101440.98
2022-11-02T22:22:33.880Z,101436.39
2022-11-02T22:25:04.439Z,101437.07
2022-11-02T22:27:34.961Z,101434.02
2022-11-02T22:30:05.487Z,101432.77
2022-11-02T22:32:36.042Z,101428.71
2022-11-02T22:35:06.651Z,101422.79
2022-11-02T22:37:37.123Z,101416.98
2022-11-02T22:40:07.709Z,101410.80
2022-11-02T22:42:41.443Z,101408.30
2022-11-02T22:45:08.737Z,101405.45
2022-11-02T22:47:39.314Z,101397.01
2022-11-02T22:50:09.957Z,101396.99
2022-11-02T22:52:40.379Z,101393.21
2022-11-02T22:55:10.916Z,101389.50
2022-11-02T22:57:41.209Z,101386.16
2022-11-02T23:00:12.140Z,101381.13
2022-11-02T23:02:42.311Z,101377.08
2022-11-02T23:05:12.866Z,101372.96
2022-11-02T23:07:43.422Z,101364.89
2022-11-02T23:10:14.084Z,101365.70
2022-11-02T23:12:44.538Z,101368.55
2022-11-02T23:15:15.064Z,101362.12
2022-11-02T23:17:45.610Z,101357.88
2022-11-02T23:20:16.147Z,101356.41
2022-11-02T23:22:46.698Z,101349.88
2022-11-02T23:25:17.241Z,101348.90
2022-11-02T23:27:47.796Z,101351.11
2022-11-02T23:30:18.325Z,101350.13
2022-11-02T23:32:48.885Z,101354.86
2022-11-02T23:35:19.420Z,101350.67
2022-11-02T23:37:49.989Z,101347.35
2022-11-02T23:40:20.524Z,101340.14
2022-11-02T23:42:51.094Z,101342.23
2022-11-02T23:45:21.645Z,101349.19
2022-11-02T23:47:52.197Z,101340.56
2022-11-02T23:50:22.738Z,101334.18
2022-11-02T23:52:53.302Z,101330.03
2022-11-02T23:55:23.485Z,101324.88
2022-11-02T23:57:54.098Z,101324.15
